createdAt,value
2018-08-17T07:56:40.820Z,320
2018-08-17T07:57:13.099Z,308
2018-08-17T07:57:45.153Z,300
2018-08-17T07:58:17.186Z,296
2018-08-17T07:58:49.208Z,292
2018-08-17T07:59:21.267Z,296
2018-08-17T07:59:53.333Z,296
2018-08-17T08:00:25.461Z,304
2018-08-17T08:00:57.475Z,312
2018-08-17T08:01:29.543Z,324
2018-08-17T08:02:01.544Z,336
2018-08-17T08:02:33.604Z,348
2018-08-17T08:03:05.648Z,360
2018-08-17T08:03:37.730Z,372
2018-08-17T08:04:10.114Z,384
2018-08-17T08:04:42.186Z,392
2018-08-17T08:05:14.237Z,396
2018-08-17T08:05:46.281Z,404
2018-08-17T08:06:18.303Z,404
2018-08-17T08:06:50.358Z,412
2018-08-17T08:07:23.090Z,416
2018-08-17T08:07:55.113Z,420
2018-08-17T08:08:27.090Z,424
2018-08-17T08:08:59.187Z,428
2018-08-17T08:09:31.148Z,428
2018-08-17T08:10:03.341Z,432
2018-08-17T08:10:35.486Z,440
2018-08-17T08:11:07.534Z,440
2018-08-17T08:11:39.584Z,452
2018-08-17T08:12:11.600Z,460
2018-08-17T08:12:43.695Z,480
2018-08-17T08:13:15.696Z,504
2018-08-17T08:13:47.944Z,532
2018-08-17T08:14:20.089Z,560
2018-08-17T08:14:52.139Z,596
2018-08-17T08:15:24.328Z,628
2018-08-17T08:15:56.346Z,660
2018-08-17T08:16:28.378Z,688
2018-08-17T08:17:00.389Z,708
2018-08-17T08:17:32.455Z,724
2018-08-17T08:18:04.478Z,732
2018-08-17T08:18:36.538Z,744
2018-08-17T08:19:09.113Z,756
2018-08-17T08:19:41.214Z,768
2018-08-17T08:20:13.275Z,780
2018-08-17T08:20:45.398Z,796
2018-08-17T08:21:17.415Z,816
2018-08-17T08:21:49.444Z,832
2018-08-17T08:22:21.509Z,852
2018-08-17T08:22:53.591Z,872
2018-08-17T08:23:25.636Z,896
